»·PEaware :: N441PW CYDB-PAWG

N441PW :: CYDB-PAWG

FLIGHT INFORMATION

Flight Status: Arrived
Operator: Privately registered:
United States
More flights under this callsign
Pilot: Stacy K. (11621)
Aircraft: CESSNA 404 TITAN
(C404)
More flights by this aircraft type
Origin: CYDB Burwash
Canada
Destination: PAWG Wrangell
United States
More flights between these airports :: More routes between these airports
Route: YAK SSR AFE LWD
File this flight plan on PilotEdge
Remarks:
Altitude:
(Current/Filed)
17,500ft
Speed:
(Current/Filed)
180kts
Departed: 09-Apr-18 06:50 PM
Arrived: 09-Apr-18 09:07 PM
Distance/Time
Traveled:
358nm/2:17
Distance/Time
To Go:
Arrived

Flight Plot

Page will automatically refresh every two minutes.

Flight plan parsing failed; only flown route is shown


Map Options




Map Legend


Flown Route
Filed Route
Departure Airport
Arrival Airport
Navaid (VOR, NDB)
Fix

Horizontal Profiles

Position Reports

Time Latitude Longitude Heading Altitude Ground
Speed
09-Apr-18 18:42 61.369482 -139.031543 125 2640ft 0kts
09-Apr-18 18:43 61.369482 -139.031543 125 2640ft 0kts
09-Apr-18 18:44 61.369482 -139.031543 125 2640ft 0kts
09-Apr-18 18:45 61.369482 -139.031542 125 2640ft 0kts
09-Apr-18 18:46 61.369481 -139.031539 125 2640ft 0kts
09-Apr-18 18:47 61.368791 -139.032538 213 2643ft 0kts
09-Apr-18 18:48 61.369630 -139.036985 310 2650ft 13kts
09-Apr-18 18:49 61.370948 -139.040102 126 2655ft 53kts
09-Apr-18 18:50 61.351548 -138.996133 138 3377ft 129kts
09-Apr-18 18:51 61.324909 -138.937554 116 4416ft 151kts
09-Apr-18 18:52 61.300106 -138.865688 134 5425ft 160kts
09-Apr-18 18:53 61.265762 -138.804824 147 6427ft 165kts
09-Apr-18 18:54 61.226723 -138.753613 151 7372ft 169kts
09-Apr-18 18:55 61.186560 -138.786275 249 8085ft 181kts
09-Apr-18 18:56 61.174684 -138.887585 247 8793ft 180kts
09-Apr-18 18:57 61.151803 -138.981474 248 9507ft 183kts
09-Apr-18 18:58 61.113923 -139.045123 209 10202ft 176kts
09-Apr-18 18:59 61.071410 -139.095125 209 10903ft 174kts
09-Apr-18 19:00 61.028204 -139.142651 202 11617ft 179kts
09-Apr-18 19:01 60.979126 -139.170728 193 12328ft 184kts
09-Apr-18 19:02 60.928553 -139.189850 191 13027ft 184kts
09-Apr-18 19:03 60.877780 -139.207252 191 13728ft 184kts
09-Apr-18 19:04 60.827147 -139.224210 190 14418ft 186kts
09-Apr-18 19:05 60.776032 -139.241290 192 15118ft 185kts
09-Apr-18 19:06 60.725082 -139.258224 192 15819ft 184kts
09-Apr-18 19:07 60.675065 -139.274991 193 16512ft 180kts
09-Apr-18 19:08 60.626145 -139.291254 193 17210ft 176kts
09-Apr-18 19:09 60.576829 -139.307542 193 17534ft 187kts
09-Apr-18 19:10 60.523582 -139.324971 193 17535ft 195kts
09-Apr-18 19:11 60.469373 -139.342661 193 17542ft 199kts
09-Apr-18 19:12 60.421656 -139.358239 193 17544ft 201kts
09-Apr-18 19:13 60.366349 -139.376280 192 17544ft 201kts
09-Apr-18 19:14 60.310993 -139.394237 192 17547ft 201kts
09-Apr-18 19:15 60.255701 -139.412147 193 17549ft 201kts
09-Apr-18 19:16 60.200272 -139.430041 192 17556ft 201kts
09-Apr-18 19:17 60.144831 -139.447710 192 17508ft 204kts
09-Apr-18 19:18 60.089084 -139.465593 192 17502ft 201kts
09-Apr-18 19:19 60.033754 -139.483324 192 17505ft 201kts
09-Apr-18 19:20 59.978574 -139.500926 190 17508ft 199kts
09-Apr-18 19:21 59.924543 -139.518105 189 17507ft 195kts
09-Apr-18 19:22 59.871042 -139.535025 189 17508ft 194kts
09-Apr-18 19:23 59.817666 -139.551854 188 17509ft 194kts
09-Apr-18 19:24 59.764296 -139.568627 188 17510ft 194kts
09-Apr-18 19:25 59.710802 -139.585390 188 17511ft 194kts
09-Apr-18 19:26 59.657386 -139.602083 188 17500ft 194kts
09-Apr-18 19:27 59.605483 -139.618273 188 17500ft 194kts
09-Apr-18 19:28 59.551969 -139.634970 188 17500ft 194kts
09-Apr-18 19:29 59.502695 -139.619132 129 17504ft 202kts
09-Apr-18 19:30 59.475441 -139.520837 122 17500ft 205kts
09-Apr-18 19:31 59.448364 -139.421612 123 17500ft 205kts
09-Apr-18 19:32 59.420982 -139.323098 123 17500ft 205kts
09-Apr-18 19:33 59.393458 -139.224796 123 17499ft 205kts
09-Apr-18 19:34 59.365866 -139.126738 123 17498ft 205kts
09-Apr-18 19:35 59.338297 -139.029195 123 17501ft 205kts
09-Apr-18 19:36 59.310617 -138.931657 123 17507ft 203kts
09-Apr-18 19:37 59.283542 -138.836713 123 17506ft 197kts
09-Apr-18 19:38 59.256802 -138.743379 123 17508ft 196kts
09-Apr-18 19:39 59.230020 -138.650224 123 17511ft 196kts
09-Apr-18 19:40 59.203189 -138.557252 123 17513ft 196kts
09-Apr-18 19:41 59.176237 -138.464236 123 17515ft 196kts
09-Apr-18 19:42 59.149256 -138.371490 123 17518ft 196kts
09-Apr-18 19:43 59.122209 -138.278893 124 17520ft 196kts
09-Apr-18 19:44 59.095087 -138.186510 124 17525ft 196kts
09-Apr-18 19:45 59.067937 -138.094672 123 17530ft 195kts
09-Apr-18 19:46 59.040902 -138.002763 124 17528ft 195kts
09-Apr-18 19:47 59.013178 -137.909347 124 17531ft 202kts
09-Apr-18 19:48 58.984907 -137.814388 124 17533ft 204kts
09-Apr-18 19:49 58.956455 -137.719265 124 17535ft 204kts
09-Apr-18 19:50 58.925451 -137.627974 129 17536ft 202kts
09-Apr-18 19:51 58.903884 -137.550614 122 17539ft 204kts
09-Apr-18 19:52 58.887421 -137.492494 123 17539ft 204kts
09-Apr-18 19:53 58.859174 -137.397528 124 17538ft 203kts
09-Apr-18 19:54 58.830645 -137.303529 125 17538ft 202kts
09-Apr-18 19:55 58.802108 -137.210192 125 17541ft 201kts
09-Apr-18 19:56 58.773503 -137.117073 125 17500ft 202kts
09-Apr-18 19:57 58.744945 -137.024453 125 17499ft 200kts
09-Apr-18 19:58 58.716443 -136.932413 125 17498ft 200kts
09-Apr-18 19:59 58.690695 -136.849545 125 17497ft 199kts
09-Apr-18 20:00 58.662137 -136.758007 125 17494ft 199kts
09-Apr-18 20:01 58.637944 -136.680790 125 16996ft 206kts
09-Apr-18 20:02 58.608039 -136.585508 125 16329ft 209kts
09-Apr-18 20:03 58.577702 -136.489302 125 15427ft 212kts
09-Apr-18 20:04 58.547184 -136.392910 124 14427ft 210kts
09-Apr-18 20:05 58.519203 -136.304987 124 13502ft 207kts
09-Apr-18 20:06 58.489455 -136.211914 124 12499ft 202kts
09-Apr-18 20:07 58.460298 -136.121115 124 11500ft 198kts
09-Apr-18 20:08 58.431867 -136.032785 124 10500ft 190kts
09-Apr-18 20:09 58.404228 -135.947271 124 9497ft 193kts
09-Apr-18 20:10 58.375851 -135.859669 124 8499ft 194kts
09-Apr-18 20:11 58.347558 -135.772705 124 7589ft 189kts
09-Apr-18 20:12 58.320344 -135.689471 124 6984ft 183kts
09-Apr-18 20:13 58.292989 -135.606079 124 6383ft 187kts
09-Apr-18 20:14 58.265284 -135.521866 124 5740ft 188kts
09-Apr-18 20:15 58.237504 -135.437766 123 5115ft 187kts
09-Apr-18 20:16 58.209741 -135.354136 123 4515ft 187kts
09-Apr-18 20:17 58.181092 -135.271892 134 3910ft 186kts
09-Apr-18 20:18 58.139728 -135.215303 147 3798ft 184kts
09-Apr-18 20:19 58.103425 -135.148391 121 3797ft 188kts
09-Apr-18 20:20 58.078337 -135.061834 118 3801ft 187kts
09-Apr-18 20:21 58.051994 -134.993660 163 4329ft 171kts
09-Apr-18 20:22 58.005619 -134.977399 168 4994ft 169kts
09-Apr-18 20:23 57.958455 -134.961206 166 5201ft 177kts
09-Apr-18 20:24 57.910275 -134.940183 157 5203ft 178kts
09-Apr-18 20:25 57.865792 -134.899706 149 5199ft 177kts
09-Apr-18 20:26 57.823178 -134.853204 148 5200ft 177kts
09-Apr-18 20:27 57.781023 -134.806004 148 5202ft 176kts
09-Apr-18 20:28 57.738918 -134.758776 148 5204ft 176kts
09-Apr-18 20:29 57.696813 -134.711642 148 5207ft 176kts
09-Apr-18 20:30 57.654647 -134.664689 148 5212ft 176kts
09-Apr-18 20:31 57.612353 -134.617155 143 5214ft 177kts
09-Apr-18 20:32 57.579998 -134.547526 126 5217ft 178kts
09-Apr-18 20:33 57.551921 -134.471242 123 5219ft 179kts
09-Apr-18 20:34 57.522824 -134.396324 131 5220ft 178kts
09-Apr-18 20:35 57.491799 -134.328049 132 5514ft 173kts
09-Apr-18 20:36 57.463909 -134.253176 123 5516ft 178kts
09-Apr-18 20:37 57.441769 -134.170391 121 5498ft 178kts
09-Apr-18 20:38 57.418417 -134.089016 114 5473ft 182kts
09-Apr-18 20:39 57.394180 -134.003287 129 4823ft 191kts
09-Apr-18 20:40 57.354031 -133.936228 139 4169ft 196kts
09-Apr-18 20:41 57.311920 -133.872297 140 3561ft 194kts
09-Apr-18 20:42 57.273587 -133.806385 133 3516ft 185kts
09-Apr-18 20:43 57.237745 -133.738053 133 3517ft 185kts
09-Apr-18 20:44 57.201694 -133.670239 136 3518ft 184kts
09-Apr-18 20:45 57.161233 -133.611945 147 3520ft 185kts
09-Apr-18 20:46 57.116650 -133.563642 148 3520ft 185kts
09-Apr-18 20:47 57.072012 -133.515488 148 3522ft 185kts
09-Apr-18 20:48 57.029929 -133.460924 136 3510ft 185kts
09-Apr-18 20:49 56.993952 -133.392686 133 3525ft 186kts
09-Apr-18 20:50 56.959904 -133.331629 136 4447ft 162kts
09-Apr-18 20:51 56.925721 -133.275606 137 5038ft 176kts
09-Apr-18 20:52 56.888526 -133.214483 138 5040ft 180kts
09-Apr-18 20:53 56.851347 -133.153178 138 5042ft 180kts
09-Apr-18 20:54 56.814114 -133.092095 138 5043ft 180kts
09-Apr-18 20:55 56.781416 -133.020963 128 4737ft 186kts
09-Apr-18 20:56 56.750018 -132.949795 131 4747ft 177kts
09-Apr-18 20:57 56.715892 -132.885555 138 4747ft 176kts
09-Apr-18 20:58 56.679499 -132.826478 138 4743ft 174kts
09-Apr-18 20:59 56.642412 -132.766691 139 4545ft 178kts
09-Apr-18 21:00 56.601870 -132.713659 126 4153ft 184kts
09-Apr-18 21:01 56.574777 -132.634593 134 3477ft 185kts
09-Apr-18 21:02 56.538656 -132.567981 122 2145ft 166kts
09-Apr-18 21:03 56.522514 -132.498034 111 1465ft 142kts
09-Apr-18 21:04 56.506375 -132.434899 118 665ft 125kts
09-Apr-18 21:05 56.489207 -132.384342 122 126ft 110kts
09-Apr-18 21:06 56.482903 -132.365635 303 48ft 10kts
09-Apr-18 21:07 56.484278 -132.372710 243 48ft 18kts
09-Apr-18 21:08 56.484819 -132.377150 274 48ft 4kts
09-Apr-18 21:09 56.484710 -132.379114 352 48ft 0kts
09-Apr-18 21:10 56.484710 -132.379114 352 48ft 0kts
09-Apr-18 21:11 56.484710 -132.379114 352 48ft 0kts
09-Apr-18 21:12 56.484710 -132.379114 352 48ft 0kts

Navigation Log

Ident Type
Flight plan parsing failed, navigation log unavailable